sensor_id;sensor_type;location;lat;lon;timestamp;P1;durP1;ratioP1;P2;durP2;ratioP2
20287;SDS011;10303;51.960;8.372;2023-04-25T00:00:31;11.63;;;2.53;;
20287;SDS011;10303;51.960;8.372;2023-04-25T00:02:57;8.53;;;3.00;;
20287;SDS011;10303;51.960;8.372;2023-04-25T00:05:25;10.30;;;2.67;;
20287;SDS011;10303;51.960;8.372;2023-04-25T00:07:52;6.97;;;2.50;;
20287;SDS011;10303;51.960;8.372;2023-04-25T00:10:19;3.73;;;2.03;;
20287;SDS011;10303;51.960;8.372;2023-04-25T00:12:46;5.23;;;2.17;;
20287;SDS011;10303;51.960;8.372;2023-04-25T00:15:13;2.50;;;2.20;;
20287;SDS011;10303;51.960;8.372;2023-04-25T00:17:39;5.73;;;2.00;;
20287;SDS011;10303;51.960;8.372;2023-04-25T00:20:05;11.20;;;2.27;;
20287;SDS011;10303;51.960;8.372;2023-04-25T00:22:35;3.43;;;2.07;;
20287;SDS011;10303;51.960;8.372;2023-04-25T00:25:06;4.83;;;2.50;;
20287;SDS011;10303;51.960;8.372;2023-04-25T00:27:33;3.90;;;1.70;;
20287;SDS011;10303;51.960;8.372;2023-04-25T00:29:59;7.70;;;3.07;;
20287;SDS011;10303;51.960;8.372;2023-04-25T00:32:25;7.73;;;3.50;;
20287;SDS011;10303;51.960;8.372;2023-04-25T00:34:52;8.57;;;3.17;;
20287;SDS011;10303;51.960;8.372;2023-04-25T00:37:18;6.30;;;3.07;;
20287;SDS011;10303;51.960;8.372;2023-04-25T00:39:45;16.07;;;3.83;;
20287;SDS011;10303;51.960;8.372;2023-04-25T00:42:12;4.77;;;2.33;;
20287;SDS011;10303;51.960;8.372;2023-04-25T00:44:39;8.40;;;3.37;;
20287;SDS011;10303;51.960;8.372;2023-04-25T00:47:06;12.93;;;2.53;;
20287;SDS011;10303;51.960;8.372;2023-04-25T00:49:32;6.20;;;2.37;;
20287;SDS011;10303;51.960;8.372;2023-04-25T00:51:58;7.57;;;3.07;;
20287;SDS011;10303;51.960;8.372;2023-04-25T00:54:25;4.77;;;3.10;;
20287;SDS011;10303;51.960;8.372;2023-04-25T00:56:51;4.67;;;2.83;;
20287;SDS011;10303;51.960;8.372;2023-04-25T00:59:18;5.33;;;2.33;;
20287;SDS011;10303;51.960;8.372;2023-04-25T01:01:45;4.90;;;3.37;;
20287;SDS011;10303;51.960;8.372;2023-04-25T01:04:12;6.87;;;3.40;;
20287;SDS011;10303;51.960;8.372;2023-04-25T01:06:38;6.17;;;3.53;;
20287;SDS011;10303;51.960;8.372;2023-04-25T01:09:07;3.27;;;2.77;;
20287;SDS011;10303;51.960;8.372;2023-04-25T01:11:33;16.27;;;3.87;;
20287;SDS011;10303;51.960;8.372;2023-04-25T01:14:00;4.83;;;2.97;;
20287;SDS011;10303;51.960;8.372;2023-04-25T01:16:27;5.93;;;2.87;;
20287;SDS011;10303;51.960;8.372;2023-04-25T01:18:53;9.80;;;2.57;;
20287;SDS011;10303;51.960;8.372;2023-04-25T01:21:20;6.70;;;3.10;;
20287;SDS011;10303;51.960;8.372;2023-04-25T01:23:47;11.97;;;4.07;;
20287;SDS011;10303;51.960;8.372;2023-04-25T01:26:13;8.67;;;3.47;;
20287;SDS011;10303;51.960;8.372;2023-04-25T01:28:40;9.43;;;3.87;;
20287;SDS011;10303;51.960;8.372;2023-04-25T01:31:07;8.77;;;3.47;;
20287;SDS011;10303;51.960;8.372;2023-04-25T01:33:34;8.40;;;3.33;;
20287;SDS011;10303;51.960;8.372;2023-04-25T01:36:00;4.23;;;2.77;;
20287;SDS011;10303;51.960;8.372;2023-04-25T01:38:27;9.67;;;3.20;;
20287;SDS011;10303;51.960;8.372;2023-04-25T01:40:53;5.87;;;2.67;;
20287;SDS011;10303;51.960;8.372;2023-04-25T01:43:21;8.67;;;3.43;;
20287;SDS011;10303;51.960;8.372;2023-04-25T01:45:48;8.83;;;3.53;;
20287;SDS011;10303;51.960;8.372;2023-04-25T01:48:15;7.90;;;3.47;;
20287;SDS011;10303;51.960;8.372;2023-04-25T01:50:43;11.63;;;3.87;;
20287;SDS011;10303;51.960;8.372;2023-04-25T01:53:11;6.23;;;3.43;;
20287;SDS011;10303;51.960;8.372;2023-04-25T01:55:38;8.53;;;3.13;;
20287;SDS011;10303;51.960;8.372;2023-04-25T01:58:08;7.23;;;3.33;;
20287;SDS011;10303;51.960;8.372;2023-04-25T02:00:56;12.60;;;3.57;;
20287;SDS011;10303;51.960;8.372;2023-04-25T02:03:26;7.47;;;3.63;;
20287;SDS011;10303;51.960;8.372;2023-04-25T02:05:53;4.17;;;2.87;;
20287;SDS011;10303;51.960;8.372;2023-04-25T02:08:20;5.73;;;2.73;;
20287;SDS011;10303;51.960;8.372;2023-04-25T02:10:46;17.97;;;3.60;;
20287;SDS011;10303;51.960;8.372;2023-04-25T02:13:18;9.57;;;3.17;;
20287;SDS011;10303;51.960;8.372;2023-04-25T02:16:22;6.83;;;3.00;;
20287;SDS011;10303;51.960;8.372;2023-04-25T02:18:50;5.03;;;3.37;;
20287;SDS011;10303;51.960;8.372;2023-04-25T02:21:18;12.10;;;3.73;;
20287;SDS011;10303;51.960;8.372;2023-04-25T02:23:44;11.40;;;4.30;;
20287;SDS011;10303;51.960;8.372;2023-04-25T02:26:14;6.07;;;4.23;;
20287;SDS011;10303;51.960;8.372;2023-04-25T02:28:40;13.37;;;4.13;;
20287;SDS011;10303;51.960;8.372;2023-04-25T02:31:07;13.10;;;4.70;;
20287;SDS011;10303;51.960;8.372;2023-04-25T02:33:33;8.70;;;4.03;;
20287;SDS011;10303;51.960;8.372;2023-04-25T02:35:59;10.13;;;4.13;;
20287;SDS011;10303;51.960;8.372;2023-04-25T02:38:25;7.47;;;3.87;;
20287;SDS011;10303;51.960;8.372;2023-04-25T02:40:51;12.97;;;4.47;;
20287;SDS011;10303;51.960;8.372;2023-04-25T02:43:17;10.97;;;3.77;;
20287;SDS011;10303;51.960;8.372;2023-04-25T02:45:43;11.07;;;4.00;;
20287;SDS011;10303;51.960;8.372;2023-04-25T02:48:10;6.43;;;3.60;;
20287;SDS011;10303;51.960;8.372;2023-04-25T02:50:36;4.67;;;2.87;;
20287;SDS011;10303;51.960;8.372;2023-04-25T02:53:02;6.97;;;4.17;;
20287;SDS011;10303;51.960;8.372;2023-04-25T02:55:35;7.40;;;3.67;;
20287;SDS011;10303;51.960;8.372;2023-04-25T02:58:02;5.60;;;2.40;;
20287;SDS011;10303;51.960;8.372;2023-04-25T03:00:42;3.60;;;2.37;;
20287;SDS011;10303;51.960;8.372;2023-04-25T03:03:08;2.77;;;2.00;;
20287;SDS011;10303;51.960;8.372;2023-04-25T03:05:34;5.03;;;2.00;;
20287;SDS011;10303;51.960;8.372;2023-04-25T03:08:01;1.57;;;1.47;;
20287;SDS011;10303;51.960;8.372;2023-04-25T03:10:27;4.47;;;2.13;;
20287;SDS011;10303;51.960;8.372;2023-04-25T03:12:56;2.53;;;1.77;;
20287;SDS011;10303;51.960;8.372;2023-04-25T03:15:22;4.23;;;1.77;;
20287;SDS011;10303;51.960;8.372;2023-04-25T03:17:48;4.60;;;2.37;;
20287;SDS011;10303;51.960;8.372;2023-04-25T03:20:14;3.50;;;2.10;;
20287;SDS011;10303;51.960;8.372;2023-04-25T03:22:40;5.00;;;2.27;;
20287;SDS011;10303;51.960;8.372;2023-04-25T03:25:06;4.90;;;1.00;;
20287;SDS011;10303;51.960;8.372;2023-04-25T03:27:33;4.93;;;1.47;;
20287;SDS011;10303;51.960;8.372;2023-04-25T03:29:59;5.97;;;2.47;;
20287;SDS011;10303;51.960;8.372;2023-04-25T03:32:25;6.00;;;2.27;;
20287;SDS011;10303;51.960;8.372;2023-04-25T03:34:51;9.80;;;2.30;;
20287;SDS011;10303;51.960;8.372;2023-04-25T03:37:17;5.17;;;3.20;;
20287;SDS011;10303;51.960;8.372;2023-04-25T03:39:43;3.63;;;2.13;;
20287;SDS011;10303;51.960;8.372;2023-04-25T03:42:10;5.90;;;2.17;;
20287;SDS011;10303;51.960;8.372;2023-04-25T03:44:36;5.70;;;2.47;;
20287;SDS011;10303;51.960;8.372;2023-04-25T03:47:02;8.07;;;2.17;;
20287;SDS011;10303;51.960;8.372;2023-04-25T03:49:29;9.03;;;2.87;;
20287;SDS011;10303;51.960;8.372;2023-04-25T03:52:02;3.33;;;2.43;;
20287;SDS011;10303;51.960;8.372;2023-04-25T03:54:35;5.47;;;2.27;;
20287;SDS011;10303;51.960;8.372;2023-04-25T03:57:05;7.53;;;2.77;;
20287;SDS011;10303;51.960;8.372;2023-04-25T03:59:34;5.17;;;2.40;;
20287;SDS011;10303;51.960;8.372;2023-04-25T04:02:00;5.77;;;2.43;;
20287;SDS011;10303;51.960;8.372;2023-04-25T04:04:27;6.87;;;2.43;;
20287;SDS011;10303;51.960;8.372;2023-04-25T04:06:53;7.77;;;2.60;;
20287;SDS011;10303;51.960;8.372;2023-04-25T04:09:25;3.80;;;2.33;;
20287;SDS011;10303;51.960;8.372;2023-04-25T04:11:53;11.33;;;3.00;;
20287;SDS011;10303;51.960;8.372;2023-04-25T04:14:20;10.57;;;3.10;;
20287;SDS011;10303;51.960;8.372;2023-04-25T04:16:48;13.17;;;3.33;;
20287;SDS011;10303;51.960;8.372;2023-04-25T04:19:17;16.73;;;4.07;;
20287;SDS011;10303;51.960;8.372;2023-04-25T04:21:53;8.53;;;2.00;;
20287;SDS011;10303;51.960;8.372;2023-04-25T04:24:20;8.27;;;2.67;;
20287;SDS011;10303;51.960;8.372;2023-04-25T04:26:54;5.87;;;2.23;;
20287;SDS011;10303;51.960;8.372;2023-04-25T04:29:43;7.77;;;3.27;;
20287;SDS011;10303;51.960;8.372;2023-04-25T04:32:24;7.40;;;2.83;;
20287;SDS011;10303;51.960;8.372;2023-04-25T04:34:52;19.10;;;3.67;;
20287;SDS011;10303;51.960;8.372;2023-04-25T04:37:20;9.13;;;3.30;;
20287;SDS011;10303;51.960;8.372;2023-04-25T04:39:47;7.67;;;2.97;;
20287;SDS011;10303;51.960;8.372;2023-04-25T04:42:27;7.87;;;2.63;;
20287;SDS011;10303;51.960;8.372;2023-04-25T04:45:14;19.77;;;2.73;;
20287;SDS011;10303;51.960;8.372;2023-04-25T04:48:01;10.30;;;3.00;;
20287;SDS011;10303;51.960;8.372;2023-04-25T04:50:33;9.73;;;2.50;;
20287;SDS011;10303;51.960;8.372;2023-04-25T04:53:20;11.03;;;2.57;;
20287;SDS011;10303;51.960;8.372;2023-04-25T04:56:05;6.87;;;2.57;;
20287;SDS011;10303;51.960;8.372;2023-04-25T04:58:46;7.13;;;2.20;;
20287;SDS011;10303;51.960;8.372;2023-04-25T05:01:32;10.73;;;3.20;;
20287;SDS011;10303;51.960;8.372;2023-04-25T05:04:21;18.70;;;2.67;;
20287;SDS011;10303;51.960;8.372;2023-04-25T05:07:13;5.77;;;2.63;;
20287;SDS011;10303;51.960;8.372;2023-04-25T05:09:39;9.47;;;2.87;;
20287;SDS011;10303;51.960;8.372;2023-04-25T05:12:12;11.50;;;3.27;;
20287;SDS011;10303;51.960;8.372;2023-04-25T05:15:04;9.77;;;3.27;;
20287;SDS011;10303;51.960;8.372;2023-04-25T05:17:49;10.90;;;2.77;;
20287;SDS011;10303;51.960;8.372;2023-04-25T05:20:24;13.53;;;3.17;;
20287;SDS011;10303;51.960;8.372;2023-04-25T05:23:12;5.37;;;2.67;;
20287;SDS011;10303;51.960;8.372;2023-04-25T05:25:52;15.73;;;4.43;;
20287;SDS011;10303;51.960;8.372;2023-04-25T05:28:38;13.03;;;3.63;;
20287;SDS011;10303;51.960;8.372;2023-04-25T05:31:25;9.00;;;2.33;;
20287;SDS011;10303;51.960;8.372;2023-04-25T05:34:00;7.07;;;2.67;;
20287;SDS011;10303;51.960;8.372;2023-04-25T05:36:37;9.00;;;3.03;;
20287;SDS011;10303;51.960;8.372;2023-04-25T05:39:03;18.17;;;3.87;;
20287;SDS011;10303;51.960;8.372;2023-04-25T05:42:05;18.40;;;3.53;;
20287;SDS011;10303;51.960;8.372;2023-04-25T05:44:57;8.77;;;3.40;;
20287;SDS011;10303;51.960;8.372;2023-04-25T05:47:50;7.70;;;2.60;;
20287;SDS011;10303;51.960;8.372;2023-04-25T05:50:25;13.60;;;3.30;;
20287;SDS011;10303;51.960;8.372;2023-04-25T05:53:00;5.27;;;2.23;;
20287;SDS011;10303;51.960;8.372;2023-04-25T05:55:31;8.77;;;2.87;;
20287;SDS011;10303;51.960;8.372;2023-04-25T05:57:59;13.67;;;3.30;;
20287;SDS011;10303;51.960;8.372;2023-04-25T06:00:25;7.80;;;2.57;;
20287;SDS011;10303;51.960;8.372;2023-04-25T06:02:52;6.97;;;3.17;;
20287;SDS011;10303;51.960;8.372;2023-04-25T06:05:18;5.97;;;2.60;;
20287;SDS011;10303;51.960;8.372;2023-04-25T06:07:45;12.70;;;3.30;;
20287;SDS011;10303;51.960;8.372;2023-04-25T06:10:11;9.03;;;2.60;;
20287;SDS011;10303;51.960;8.372;2023-04-25T06:12:37;15.30;;;3.27;;
20287;SDS011;10303;51.960;8.372;2023-04-25T06:15:04;7.03;;;2.00;;
20287;SDS011;10303;51.960;8.372;2023-04-25T06:17:31;14.83;;;2.43;;
20287;SDS011;10303;51.960;8.372;2023-04-25T06:19:59;10.40;;;3.67;;
20287;SDS011;10303;51.960;8.372;2023-04-25T06:22:27;3.47;;;1.97;;
20287;SDS011;10303;51.960;8.372;2023-04-25T06:24:53;8.47;;;2.97;;
20287;SDS011;10303;51.960;8.372;2023-04-25T06:27:22;15.20;;;2.53;;
20287;SDS011;10303;51.960;8.372;2023-04-25T06:29:48;11.73;;;3.37;;
20287;SDS011;10303;51.960;8.372;2023-04-25T06:32:15;6.23;;;1.47;;
20287;SDS011;10303;51.960;8.372;2023-04-25T06:34:41;14.90;;;2.30;;
20287;SDS011;10303;51.960;8.372;2023-04-25T06:37:07;5.00;;;2.37;;
20287;SDS011;10303;51.960;8.372;2023-04-25T06:39:34;6.40;;;2.03;;
20287;SDS011;10303;51.960;8.372;2023-04-25T06:42:00;12.30;;;2.37;;
20287;SDS011;10303;51.960;8.372;2023-04-25T06:44:55;13.60;;;3.40;;
20287;SDS011;10303;51.960;8.372;2023-04-25T06:47:22;8.63;;;2.90;;
20287;SDS011;10303;51.960;8.372;2023-04-25T06:49:49;6.63;;;1.77;;
20287;SDS011;10303;51.960;8.372;2023-04-25T06:52:17;9.87;;;2.90;;
20287;SDS011;10303;51.960;8.372;2023-04-25T06:54:44;7.80;;;2.60;;
20287;SDS011;10303;51.960;8.372;2023-04-25T06:57:21;8.33;;;2.30;;
20287;SDS011;10303;51.960;8.372;2023-04-25T06:59:48;10.97;;;2.00;;
20287;SDS011;10303;51.960;8.372;2023-04-25T07:02:14;8.93;;;2.30;;
20287;SDS011;10303;51.960;8.372;2023-04-25T07:04:41;5.80;;;1.83;;
20287;SDS011;10303;51.960;8.372;2023-04-25T07:07:08;10.77;;;2.67;;
20287;SDS011;10303;51.960;8.372;2023-04-25T07:09:44;5.60;;;1.93;;
20287;SDS011;10303;51.960;8.372;2023-04-25T07:12:10;4.13;;;2.20;;
20287;SDS011;10303;51.960;8.372;2023-04-25T07:14:37;6.20;;;3.07;;
20287;SDS011;10303;51.960;8.372;2023-04-25T07:17:03;10.07;;;2.13;;
20287;SDS011;10303;51.960;8.372;2023-04-25T07:19:32;3.93;;;1.83;;
20287;SDS011;10303;51.960;8.372;2023-04-25T07:22:00;16.63;;;2.03;;
20287;SDS011;10303;51.960;8.372;2023-04-25T07:24:28;3.30;;;1.87;;
20287;SDS011;10303;51.960;8.372;2023-04-25T07:26:55;5.77;;;2.57;;
20287;SDS011;10303;51.960;8.372;2023-04-25T07:29:21;3.70;;;1.70;;
20287;SDS011;10303;51.960;8.372;2023-04-25T07:31:47;9.73;;;2.27;;
20287;SDS011;10303;51.960;8.372;2023-04-25T07:34:13;4.50;;;2.60;;
20287;SDS011;10303;51.960;8.372;2023-04-25T07:36:39;7.50;;;1.90;;
20287;SDS011;10303;51.960;8.372;2023-04-25T07:39:05;10.33;;;1.70;;
20287;SDS011;10303;51.960;8.372;2023-04-25T07:41:32;7.27;;;1.93;;
20287;SDS011;10303;51.960;8.372;2023-04-25T07:43:58;4.53;;;1.30;;
20287;SDS011;10303;51.960;8.372;2023-04-25T07:46:25;12.13;;;1.80;;
20287;SDS011;10303;51.960;8.372;2023-04-25T07:48:51;7.93;;;1.40;;
20287;SDS011;10303;51.960;8.372;2023-04-25T07:51:18;7.60;;;2.03;;
20287;SDS011;10303;51.960;8.372;2023-04-25T07:53:45;6.70;;;2.13;;
20287;SDS011;10303;51.960;8.372;2023-04-25T07:56:14;4.07;;;1.00;;
20287;SDS011;10303;51.960;8.372;2023-04-25T07:58:43;7.93;;;2.00;;
20287;SDS011;10303;51.960;8.372;2023-04-25T08:01:12;10.63;;;2.30;;
20287;SDS011;10303;51.960;8.372;2023-04-25T08:03:38;5.60;;;1.60;;
20287;SDS011;10303;51.960;8.372;2023-04-25T08:06:10;6.20;;;1.83;;
20287;SDS011;10303;51.960;8.372;2023-04-25T08:08:46;10.07;;;2.07;;
20287;SDS011;10303;51.960;8.372;2023-04-25T08:11:16;11.03;;;2.13;;
20287;SDS011;10303;51.960;8.372;2023-04-25T08:13:42;5.57;;;1.50;;
20287;SDS011;10303;51.960;8.372;2023-04-25T08:16:08;7.13;;;1.87;;
20287;SDS011;10303;51.960;8.372;2023-04-25T08:18:34;4.00;;;1.03;;
20287;SDS011;10303;51.960;8.372;2023-04-25T08:21:00;4.53;;;1.33;;
20287;SDS011;10303;51.960;8.372;2023-04-25T08:23:26;7.53;;;1.43;;
20287;SDS011;10303;51.960;8.372;2023-04-25T08:26:07;2.87;;;1.00;;
20287;SDS011;10303;51.960;8.372;2023-04-25T08:28:36;7.60;;;1.40;;
20287;SDS011;10303;51.960;8.372;2023-04-25T08:31:03;5.57;;;1.40;;
20287;SDS011;10303;51.960;8.372;2023-04-25T08:33:38;7.83;;;1.83;;
20287;SDS011;10303;51.960;8.372;2023-04-25T08:36:27;10.20;;;1.47;;
20287;SDS011;10303;51.960;8.372;2023-04-25T08:38:53;5.67;;;1.87;;
20287;SDS011;10303;51.960;8.372;2023-04-25T08:41:21;4.03;;;1.30;;
20287;SDS011;10303;51.960;8.372;2023-04-25T08:43:48;3.07;;;1.13;;
20287;SDS011;10303;51.960;8.372;2023-04-25T08:46:17;3.27;;;1.30;;
20287;SDS011;10303;51.960;8.372;2023-04-25T08:49:04;11.03;;;1.40;;
20287;SDS011;10303;51.960;8.372;2023-04-25T08:51:31;5.10;;;1.47;;
20287;SDS011;10303;51.960;8.372;2023-04-25T08:54:06;4.90;;;1.23;;
20287;SDS011;10303;51.960;8.372;2023-04-25T08:56:37;7.40;;;1.20;;
20287;SDS011;10303;51.960;8.372;2023-04-25T08:59:05;5.87;;;0.90;;
20287;SDS011;10303;51.960;8.372;2023-04-25T09:01:34;2.93;;;1.37;;
20287;SDS011;10303;51.960;8.372;2023-04-25T09:04:01;3.93;;;1.30;;
20287;SDS011;10303;51.960;8.372;2023-04-25T09:06:30;4.57;;;1.20;;
20287;SDS011;10303;51.960;8.372;2023-04-25T09:09:06;2.67;;;1.23;;
20287;SDS011;10303;51.960;8.372;2023-04-25T09:11:34;3.43;;;1.40;;
20287;SDS011;10303;51.960;8.372;2023-04-25T09:14:12;2.97;;;0.80;;
20287;SDS011;10303;51.960;8.372;2023-04-25T09:16:59;2.43;;;0.73;;
20287;SDS011;10303;51.960;8.372;2023-04-25T09:19:39;4.30;;;0.90;;
20287;SDS011;10303;51.960;8.372;2023-04-25T09:22:13;3.70;;;0.90;;
20287;SDS011;10303;51.960;8.372;2023-04-25T09:24:40;7.73;;;1.17;;
20287;SDS011;10303;51.960;8.372;2023-04-25T09:27:17;4.27;;;1.10;;
20287;SDS011;10303;51.960;8.372;2023-04-25T09:29:48;5.53;;;1.40;;
20287;SDS011;10303;51.960;8.372;2023-04-25T09:32:27;5.03;;;0.83;;
20287;SDS011;10303;51.960;8.372;2023-04-25T09:34:56;2.97;;;0.93;;
20287;SDS011;10303;51.960;8.372;2023-04-25T09:40:04;5.20;;;1.00;;
20287;SDS011;10303;51.960;8.372;2023-04-25T09:42:40;5.20;;;0.90;;
20287;SDS011;10303;51.960;8.372;2023-04-25T09:45:07;6.27;;;1.07;;
20287;SDS011;10303;51.960;8.372;2023-04-25T09:47:40;2.63;;;1.23;;
20287;SDS011;10303;51.960;8.372;2023-04-25T09:50:14;3.93;;;1.17;;
20287;SDS011;10303;51.960;8.372;2023-04-25T09:52:45;7.57;;;1.23;;
20287;SDS011;10303;51.960;8.372;2023-04-25T09:55:27;8.83;;;1.60;;
20287;SDS011;10303;51.960;8.372;2023-04-25T09:57:53;4.47;;;0.80;;
20287;SDS011;10303;51.960;8.372;2023-04-25T10:00:27;1.03;;;0.60;;
20287;SDS011;10303;51.960;8.372;2023-04-25T10:02:54;4.67;;;0.70;;
20287;SDS011;10303;51.960;8.372;2023-04-25T10:05:41;1.70;;;0.90;;
20287;SDS011;10303;51.960;8.372;2023-04-25T10:08:09;3.23;;;0.97;;
20287;SDS011;10303;51.960;8.372;2023-04-25T10:10:37;2.73;;;0.90;;
20287;SDS011;10303;51.960;8.372;2023-04-25T10:13:06;2.30;;;0.80;;
20287;SDS011;10303;51.960;8.372;2023-04-25T10:15:34;2.00;;;1.50;;
20287;SDS011;10303;51.960;8.372;2023-04-25T10:18:01;8.00;;;0.90;;
20287;SDS011;10303;51.960;8.372;2023-04-25T10:20:28;7.73;;;1.27;;
20287;SDS011;10303;51.960;8.372;2023-04-25T10:22:55;5.43;;;1.07;;
20287;SDS011;10303;51.960;8.372;2023-04-25T10:25:36;3.27;;;1.13;;
20287;SDS011;10303;51.960;8.372;2023-04-25T10:28:04;8.50;;;1.83;;
20287;SDS011;10303;51.960;8.372;2023-04-25T10:30:31;4.73;;;1.23;;
20287;SDS011;10303;51.960;8.372;2023-04-25T10:32:58;2.30;;;1.10;;
20287;SDS011;10303;51.960;8.372;2023-04-25T10:35:26;2.23;;;0.80;;
20287;SDS011;10303;51.960;8.372;2023-04-25T10:38:05;4.23;;;1.30;;
20287;SDS011;10303;51.960;8.372;2023-04-25T10:40:35;3.60;;;0.67;;
20287;SDS011;10303;51.960;8.372;2023-04-25T10:54:02;4.17;;;1.63;;
20287;SDS011;10303;51.960;8.372;2023-04-25T10:56:31;4.10;;;1.60;;
20287;SDS011;10303;51.960;8.372;2023-04-25T11:01:42;1.93;;;1.00;;
20287;SDS011;10303;51.960;8.372;2023-04-25T11:09:27;1.70;;;0.80;;
20287;SDS011;10303;51.960;8.372;2023-04-25T11:11:54;2.60;;;0.80;;
20287;SDS011;10303;51.960;8.372;2023-04-25T11:14:22;1.27;;;0.80;;
20287;SDS011;10303;51.960;8.372;2023-04-25T11:16:57;9.50;;;1.53;;
20287;SDS011;10303;51.960;8.372;2023-04-25T11:19:25;2.27;;;1.00;;
20287;SDS011;10303;51.960;8.372;2023-04-25T11:21:55;5.67;;;1.03;;
20287;SDS011;10303;51.960;8.372;2023-04-25T11:24:32;1.40;;;0.90;;
20287;SDS011;10303;51.960;8.372;2023-04-25T11:27:01;3.57;;;0.80;;
20287;SDS011;10303;51.960;8.372;2023-04-25T11:29:30;5.97;;;1.13;;
20287;SDS011;10303;51.960;8.372;2023-04-25T11:31:57;1.70;;;1.27;;
20287;SDS011;10303;51.960;8.372;2023-04-25T11:34:25;3.53;;;1.00;;
20287;SDS011;10303;51.960;8.372;2023-04-25T11:36:52;6.07;;;1.00;;
20287;SDS011;10303;51.960;8.372;2023-04-25T11:39:19;1.87;;;0.80;;
20287;SDS011;10303;51.960;8.372;2023-04-25T11:41:46;2.17;;;1.00;;
20287;SDS011;10303;51.960;8.372;2023-04-25T11:44:15;4.67;;;1.00;;
20287;SDS011;10303;51.960;8.372;2023-04-25T11:46:42;2.50;;;1.23;;
20287;SDS011;10303;51.960;8.372;2023-04-25T11:49:09;3.30;;;0.90;;
20287;SDS011;10303;51.960;8.372;2023-04-25T11:51:43;3.00;;;1.00;;
20287;SDS011;10303;51.960;8.372;2023-04-25T11:54:12;2.33;;;1.03;;
20287;SDS011;10303;51.960;8.372;2023-04-25T11:56:45;1.07;;;0.70;;
20287;SDS011;10303;51.960;8.372;2023-04-25T11:59:12;0.73;;;0.70;;
20287;SDS011;10303;51.960;8.372;2023-04-25T12:01:39;1.90;;;0.90;;
20287;SDS011;10303;51.960;8.372;2023-04-25T12:04:18;2.83;;;0.73;;
20287;SDS011;10303;51.960;8.372;2023-04-25T12:06:46;2.73;;;0.83;;
20287;SDS011;10303;51.960;8.372;2023-04-25T12:09:19;1.80;;;0.77;;
20287;SDS011;10303;51.960;8.372;2023-04-25T12:11:56;2.97;;;1.20;;
20287;SDS011;10303;51.960;8.372;2023-04-25T12:14:28;0.60;;;0.60;;
20287;SDS011;10303;51.960;8.372;2023-04-25T12:17:00;2.57;;;0.70;;
20287;SDS011;10303;51.960;8.372;2023-04-25T12:19:33;6.73;;;0.73;;
20287;SDS011;10303;51.960;8.372;2023-04-25T12:22:01;1.73;;;1.07;;
20287;SDS011;10303;51.960;8.372;2023-04-25T12:24:29;1.07;;;0.97;;
20287;SDS011;10303;51.960;8.372;2023-04-25T12:29:30;1.30;;;0.57;;
20287;SDS011;10303;51.960;8.372;2023-04-25T12:31:57;3.37;;;0.90;;
20287;SDS011;10303;51.960;8.372;2023-04-25T12:34:25;4.67;;;1.33;;
20287;SDS011;10303;51.960;8.372;2023-04-25T12:36:52;5.97;;;0.80;;
20287;SDS011;10303;51.960;8.372;2023-04-25T12:39:21;1.27;;;0.80;;
20287;SDS011;10303;51.960;8.372;2023-04-25T12:41:49;1.90;;;1.10;;
20287;SDS011;10303;51.960;8.372;2023-04-25T12:44:19;2.60;;;0.83;;
20287;SDS011;10303;51.960;8.372;2023-04-25T12:46:46;1.43;;;0.70;;
20287;SDS011;10303;51.960;8.372;2023-04-25T12:49:13;0.50;;;0.50;;
20287;SDS011;10303;51.960;8.372;2023-04-25T12:51:40;2.27;;;0.77;;
20287;SDS011;10303;51.960;8.372;2023-04-25T12:54:07;1.90;;;0.70;;
20287;SDS011;10303;51.960;8.372;2023-04-25T12:56:33;1.50;;;0.80;;
20287;SDS011;10303;51.960;8.372;2023-04-25T12:59:01;0.93;;;0.60;;
20287;SDS011;10303;51.960;8.372;2023-04-25T13:01:30;0.77;;;0.30;;
20287;SDS011;10303;51.960;8.372;2023-04-25T13:03:57;3.43;;;0.60;;
20287;SDS011;10303;51.960;8.372;2023-04-25T13:06:23;1.57;;;0.50;;
20287;SDS011;10303;51.960;8.372;2023-04-25T13:08:49;0.60;;;0.60;;
20287;SDS011;10303;51.960;8.372;2023-04-25T13:11:15;1.40;;;0.67;;
20287;SDS011;10303;51.960;8.372;2023-04-25T13:13:41;0.57;;;0.40;;
20287;SDS011;10303;51.960;8.372;2023-04-25T13:16:08;3.30;;;0.80;;
20287;SDS011;10303;51.960;8.372;2023-04-25T13:18:34;1.60;;;0.70;;
20287;SDS011;10303;51.960;8.372;2023-04-25T13:21:01;0.90;;;0.60;;
20287;SDS011;10303;51.960;8.372;2023-04-25T13:23:27;2.20;;;0.50;;
20287;SDS011;10303;51.960;8.372;2023-04-25T13:25:55;1.73;;;0.80;;
20287;SDS011;10303;51.960;8.372;2023-04-25T13:28:23;3.23;;;0.93;;
20287;SDS011;10303;51.960;8.372;2023-04-25T13:30:50;2.40;;;0.90;;
20287;SDS011;10303;51.960;8.372;2023-04-25T13:33:16;1.47;;;0.40;;
20287;SDS011;10303;51.960;8.372;2023-04-25T13:35:43;1.53;;;0.73;;
20287;SDS011;10303;51.960;8.372;2023-04-25T13:38:12;2.50;;;0.60;;
20287;SDS011;10303;51.960;8.372;2023-04-25T13:40:38;1.23;;;0.60;;
20287;SDS011;10303;51.960;8.372;2023-04-25T13:43:04;3.87;;;0.87;;
20287;SDS011;10303;51.960;8.372;2023-04-25T13:45:31;1.70;;;0.63;;
20287;SDS011;10303;51.960;8.372;2023-04-25T13:47:57;0.90;;;0.80;;
20287;SDS011;10303;51.960;8.372;2023-04-25T13:50:24;1.93;;;0.80;;
20287;SDS011;10303;51.960;8.372;2023-04-25T13:52:50;2.40;;;0.70;;
20287;SDS011;10303;51.960;8.372;2023-04-25T13:55:16;3.20;;;0.67;;
20287;SDS011;10303;51.960;8.372;2023-04-25T13:57:42;3.67;;;0.50;;
20287;SDS011;10303;51.960;8.372;2023-04-25T14:00:09;0.60;;;0.60;;
20287;SDS011;10303;51.960;8.372;2023-04-25T14:02:36;1.07;;;0.97;;
20287;SDS011;10303;51.960;8.372;2023-04-25T14:05:03;4.00;;;0.87;;
20287;SDS011;10303;51.960;8.372;2023-04-25T14:07:33;1.40;;;0.63;;
20287;SDS011;10303;51.960;8.372;2023-04-25T14:10:02;2.00;;;0.83;;
20287;SDS011;10303;51.960;8.372;2023-04-25T14:12:30;2.40;;;1.03;;
20287;SDS011;10303;51.960;8.372;2023-04-25T14:14:59;0.40;;;0.40;;
20287;SDS011;10303;51.960;8.372;2023-04-25T14:17:25;2.10;;;0.70;;
20287;SDS011;10303;51.960;8.372;2023-04-25T14:19:52;0.93;;;0.70;;
20287;SDS011;10303;51.960;8.372;2023-04-25T14:22:18;0.60;;;0.60;;
20287;SDS011;10303;51.960;8.372;2023-04-25T14:24:45;2.30;;;0.60;;
20287;SDS011;10303;51.960;8.372;2023-04-25T14:27:12;1.40;;;0.70;;
20287;SDS011;10303;51.960;8.372;2023-04-25T14:29:41;1.27;;;0.63;;
20287;SDS011;10303;51.960;8.372;2023-04-25T14:32:08;3.50;;;0.73;;
20287;SDS011;10303;51.960;8.372;2023-04-25T14:34:34;4.03;;;0.93;;
20287;SDS011;10303;51.960;8.372;2023-04-25T14:37:03;2.20;;;0.87;;
20287;SDS011;10303;51.960;8.372;2023-04-25T14:39:30;3.97;;;1.17;;
20287;SDS011;10303;51.960;8.372;2023-04-25T14:41:57;3.20;;;0.87;;
20287;SDS011;10303;51.960;8.372;2023-04-25T14:44:24;2.67;;;0.87;;
20287;SDS011;10303;51.960;8.372;2023-04-25T14:46:50;1.30;;;1.20;;
20287;SDS011;10303;51.960;8.372;2023-04-25T14:49:17;3.03;;;0.90;;
20287;SDS011;10303;51.960;8.372;2023-04-25T14:51:43;1.03;;;0.70;;
20287;SDS011;10303;51.960;8.372;2023-04-25T14:54:10;1.50;;;1.00;;
20287;SDS011;10303;51.960;8.372;2023-04-25T14:56:37;6.97;;;1.00;;
20287;SDS011;10303;51.960;8.372;2023-04-25T14:59:03;5.90;;;1.47;;
20287;SDS011;10303;51.960;8.372;2023-04-25T15:01:30;5.30;;;1.17;;
20287;SDS011;10303;51.960;8.372;2023-04-25T15:03:56;2.17;;;0.80;;
20287;SDS011;10303;51.960;8.372;2023-04-25T15:06:23;3.93;;;0.90;;
20287;SDS011;10303;51.960;8.372;2023-04-25T15:08:51;3.17;;;0.90;;
20287;SDS011;10303;51.960;8.372;2023-04-25T15:11:19;2.50;;;0.80;;
20287;SDS011;10303;51.960;8.372;2023-04-25T15:13:45;1.20;;;0.73;;
20287;SDS011;10303;51.960;8.372;2023-04-25T15:16:12;2.33;;;0.80;;
20287;SDS011;10303;51.960;8.372;2023-04-25T15:18:40;2.80;;;1.13;;
20287;SDS011;10303;51.960;8.372;2023-04-25T15:21:06;2.17;;;1.23;;
20287;SDS011;10303;51.960;8.372;2023-04-25T15:23:33;1.63;;;0.70;;